sensor_id;sensor_type;location;lat;lon;timestamp;P1;durP1;ratioP1;P2;durP2;ratioP2
9689;SDS011;4884;42.614;23.340;2023-05-07T00:00:08;8.53;;;5.43;;
9689;SDS011;4884;42.614;23.340;2023-05-07T00:02:34;5.97;;;5.43;;
9689;SDS011;4884;42.614;23.340;2023-05-07T00:04:59;7.20;;;6.20;;
9689;SDS011;4884;42.614;23.340;2023-05-07T00:07:27;7.77;;;5.30;;
9689;SDS011;4884;42.614;23.340;2023-05-07T00:09:52;5.70;;;5.17;;
9689;SDS011;4884;42.614;23.340;2023-05-07T00:12:18;5.83;;;5.40;;
9689;SDS011;4884;42.614;23.340;2023-05-07T00:14:43;6.13;;;5.20;;
9689;SDS011;4884;42.614;23.340;2023-05-07T00:17:08;6.43;;;5.83;;
9689;SDS011;4884;42.614;23.340;2023-05-07T00:19:34;6.27;;;5.67;;
9689;SDS011;4884;42.614;23.340;2023-05-07T00:21:59;6.00;;;5.40;;
9689;SDS011;4884;42.614;23.340;2023-05-07T00:24:25;7.30;;;5.60;;
9689;SDS011;4884;42.614;23.340;2023-05-07T00:26:50;6.30;;;5.60;;
9689;SDS011;4884;42.614;23.340;2023-05-07T00:29:16;7.87;;;6.07;;
9689;SDS011;4884;42.614;23.340;2023-05-07T00:31:41;13.63;;;8.67;;
9689;SDS011;4884;42.614;23.340;2023-05-07T00:34:06;10.27;;;7.07;;
9689;SDS011;4884;42.614;23.340;2023-05-07T00:36:32;10.20;;;7.30;;
9689;SDS011;4884;42.614;23.340;2023-05-07T00:38:59;8.77;;;5.70;;
9689;SDS011;4884;42.614;23.340;2023-05-07T00:41:25;6.33;;;5.43;;
9689;SDS011;4884;42.614;23.340;2023-05-07T00:43:50;6.30;;;5.70;;
9689;SDS011;4884;42.614;23.340;2023-05-07T00:46:16;6.30;;;5.70;;
9689;SDS011;4884;42.614;23.340;2023-05-07T00:48:44;5.73;;;5.23;;
9689;SDS011;4884;42.614;23.340;2023-05-07T00:51:09;5.33;;;4.90;;
9689;SDS011;4884;42.614;23.340;2023-05-07T00:53:36;6.13;;;5.33;;
9689;SDS011;4884;42.614;23.340;2023-05-07T00:56:02;6.60;;;5.20;;
9689;SDS011;4884;42.614;23.340;2023-05-07T00:58:27;7.17;;;5.00;;
9689;SDS011;4884;42.614;23.340;2023-05-07T01:00:53;9.17;;;4.90;;
9689;SDS011;4884;42.614;23.340;2023-05-07T01:03:18;10.57;;;4.90;;
9689;SDS011;4884;42.614;23.340;2023-05-07T01:05:44;6.57;;;5.03;;
9689;SDS011;4884;42.614;23.340;2023-05-07T01:08:11;5.90;;;4.90;;
9689;SDS011;4884;42.614;23.340;2023-05-07T01:10:37;5.33;;;4.77;;
9689;SDS011;4884;42.614;23.340;2023-05-07T01:13:02;6.00;;;5.10;;
9689;SDS011;4884;42.614;23.340;2023-05-07T01:15:28;6.17;;;5.67;;
9689;SDS011;4884;42.614;23.340;2023-05-07T01:17:53;5.23;;;4.80;;
9689;SDS011;4884;42.614;23.340;2023-05-07T01:20:19;5.70;;;5.20;;
9689;SDS011;4884;42.614;23.340;2023-05-07T01:22:44;6.63;;;5.10;;
9689;SDS011;4884;42.614;23.340;2023-05-07T01:25:10;7.53;;;5.17;;
9689;SDS011;4884;42.614;23.340;2023-05-07T01:27:35;8.43;;;4.97;;
9689;SDS011;4884;42.614;23.340;2023-05-07T01:30:05;5.57;;;5.07;;
9689;SDS011;4884;42.614;23.340;2023-05-07T01:32:38;5.87;;;5.30;;
9689;SDS011;4884;42.614;23.340;2023-05-07T01:35:07;7.23;;;5.77;;
9689;SDS011;4884;42.614;23.340;2023-05-07T01:37:36;6.03;;;5.43;;
9689;SDS011;4884;42.614;23.340;2023-05-07T01:40:02;6.27;;;5.10;;
9689;SDS011;4884;42.614;23.340;2023-05-07T01:42:28;7.83;;;6.00;;
9689;SDS011;4884;42.614;23.340;2023-05-07T01:44:54;6.03;;;5.53;;
9689;SDS011;4884;42.614;23.340;2023-05-07T01:47:20;8.47;;;5.90;;
9689;SDS011;4884;42.614;23.340;2023-05-07T01:49:45;6.43;;;5.27;;
9689;SDS011;4884;42.614;23.340;2023-05-07T01:52:11;6.27;;;5.40;;
9689;SDS011;4884;42.614;23.340;2023-05-07T01:54:37;5.43;;;4.93;;
9689;SDS011;4884;42.614;23.340;2023-05-07T01:57:02;6.83;;;5.90;;
9689;SDS011;4884;42.614;23.340;2023-05-07T01:59:27;6.20;;;5.70;;
9689;SDS011;4884;42.614;23.340;2023-05-07T02:01:53;6.37;;;5.60;;
9689;SDS011;4884;42.614;23.340;2023-05-07T02:04:18;6.87;;;5.17;;
9689;SDS011;4884;42.614;23.340;2023-05-07T02:06:44;5.77;;;5.20;;
9689;SDS011;4884;42.614;23.340;2023-05-07T02:09:09;5.40;;;4.90;;
9689;SDS011;4884;42.614;23.340;2023-05-07T02:11:34;5.70;;;5.20;;
9689;SDS011;4884;42.614;23.340;2023-05-07T02:14:00;7.13;;;5.03;;
9689;SDS011;4884;42.614;23.340;2023-05-07T02:16:25;5.20;;;4.70;;
9689;SDS011;4884;42.614;23.340;2023-05-07T02:18:51;5.93;;;5.33;;
9689;SDS011;4884;42.614;23.340;2023-05-07T02:21:16;5.13;;;4.63;;
9689;SDS011;4884;42.614;23.340;2023-05-07T02:23:42;7.50;;;4.90;;
9689;SDS011;4884;42.614;23.340;2023-05-07T02:26:07;5.73;;;5.13;;
9689;SDS011;4884;42.614;23.340;2023-05-07T02:28:32;5.77;;;5.27;;
9689;SDS011;4884;42.614;23.340;2023-05-07T02:31:01;4.97;;;4.47;;
9689;SDS011;4884;42.614;23.340;2023-05-07T02:33:27;6.43;;;4.80;;
9689;SDS011;4884;42.614;23.340;2023-05-07T02:35:53;5.23;;;4.83;;
9689;SDS011;4884;42.614;23.340;2023-05-07T02:38:18;5.97;;;5.37;;
9689;SDS011;4884;42.614;23.340;2023-05-07T02:40:44;6.10;;;5.60;;
9689;SDS011;4884;42.614;23.340;2023-05-07T02:43:09;8.67;;;5.70;;
9689;SDS011;4884;42.614;23.340;2023-05-07T02:45:35;6.27;;;5.43;;
9689;SDS011;4884;42.614;23.340;2023-05-07T02:48:02;6.07;;;5.50;;
9689;SDS011;4884;42.614;23.340;2023-05-07T02:50:28;7.83;;;6.07;;
9689;SDS011;4884;42.614;23.340;2023-05-07T02:52:53;6.93;;;6.23;;
9689;SDS011;4884;42.614;23.340;2023-05-07T02:55:19;7.70;;;6.93;;
9689;SDS011;4884;42.614;23.340;2023-05-07T02:57:44;12.53;;;7.80;;
9689;SDS011;4884;42.614;23.340;2023-05-07T03:00:13;8.80;;;7.87;;
9689;SDS011;4884;42.614;23.340;2023-05-07T03:02:40;8.20;;;7.30;;
9689;SDS011;4884;42.614;23.340;2023-05-07T03:05:05;7.87;;;7.07;;
9689;SDS011;4884;42.614;23.340;2023-05-07T03:07:31;11.87;;;8.70;;
9689;SDS011;4884;42.614;23.340;2023-05-07T03:09:56;8.97;;;8.07;;
9689;SDS011;4884;42.614;23.340;2023-05-07T03:12:21;11.30;;;9.33;;
9689;SDS011;4884;42.614;23.340;2023-05-07T03:14:47;10.97;;;9.03;;
9689;SDS011;4884;42.614;23.340;2023-05-07T03:17:12;12.60;;;10.60;;
9689;SDS011;4884;42.614;23.340;2023-05-07T03:19:38;12.53;;;10.43;;
9689;SDS011;4884;42.614;23.340;2023-05-07T03:22:03;12.17;;;10.87;;
9689;SDS011;4884;42.614;23.340;2023-05-07T03:24:28;13.60;;;10.53;;
9689;SDS011;4884;42.614;23.340;2023-05-07T03:26:54;12.40;;;9.83;;
9689;SDS011;4884;42.614;23.340;2023-05-07T03:29:19;11.73;;;10.33;;
9689;SDS011;4884;42.614;23.340;2023-05-07T03:31:45;14.13;;;10.30;;
9689;SDS011;4884;42.614;23.340;2023-05-07T03:34:10;12.10;;;10.50;;
9689;SDS011;4884;42.614;23.340;2023-05-07T03:36:36;10.70;;;8.97;;
9689;SDS011;4884;42.614;23.340;2023-05-07T03:39:01;9.10;;;8.17;;
9689;SDS011;4884;42.614;23.340;2023-05-07T03:41:27;14.03;;;8.07;;
9689;SDS011;4884;42.614;23.340;2023-05-07T03:43:52;8.30;;;7.43;;
9689;SDS011;4884;42.614;23.340;2023-05-07T03:46:17;8.20;;;6.97;;
9689;SDS011;4884;42.614;23.340;2023-05-07T03:48:43;8.27;;;7.43;;
9689;SDS011;4884;42.614;23.340;2023-05-07T03:51:08;9.00;;;7.53;;
9689;SDS011;4884;42.614;23.340;2023-05-07T03:53:34;9.20;;;7.90;;
9689;SDS011;4884;42.614;23.340;2023-05-07T03:55:59;9.87;;;7.13;;
9689;SDS011;4884;42.614;23.340;2023-05-07T03:58:24;9.47;;;8.43;;
9689;SDS011;4884;42.614;23.340;2023-05-07T04:00:50;9.33;;;8.40;;
9689;SDS011;4884;42.614;23.340;2023-05-07T04:03:15;9.83;;;8.57;;
9689;SDS011;4884;42.614;23.340;2023-05-07T04:05:41;10.57;;;9.43;;
9689;SDS011;4884;42.614;23.340;2023-05-07T04:08:06;12.27;;;9.83;;
9689;SDS011;4884;42.614;23.340;2023-05-07T04:10:32;11.23;;;10.13;;
9689;SDS011;4884;42.614;23.340;2023-05-07T04:12:57;10.30;;;9.30;;
9689;SDS011;4884;42.614;23.340;2023-05-07T04:15:23;9.80;;;8.90;;
9689;SDS011;4884;42.614;23.340;2023-05-07T04:17:48;11.73;;;9.37;;
9689;SDS011;4884;42.614;23.340;2023-05-07T04:20:14;12.77;;;10.50;;
9689;SDS011;4884;42.614;23.340;2023-05-07T04:22:40;12.10;;;10.13;;
9689;SDS011;4884;42.614;23.340;2023-05-07T04:25:06;12.37;;;11.17;;
9689;SDS011;4884;42.614;23.340;2023-05-07T04:27:34;12.70;;;10.97;;
9689;SDS011;4884;42.614;23.340;2023-05-07T04:29:59;12.30;;;11.07;;
9689;SDS011;4884;42.614;23.340;2023-05-07T04:32:25;12.87;;;11.47;;
9689;SDS011;4884;42.614;23.340;2023-05-07T04:34:51;12.03;;;10.83;;
9689;SDS011;4884;42.614;23.340;2023-05-07T04:37:16;12.43;;;11.23;;
9689;SDS011;4884;42.614;23.340;2023-05-07T04:39:42;13.73;;;10.73;;
9689;SDS011;4884;42.614;23.340;2023-05-07T04:42:07;11.70;;;10.60;;
9689;SDS011;4884;42.614;23.340;2023-05-07T04:44:34;12.50;;;11.20;;
9689;SDS011;4884;42.614;23.340;2023-05-07T04:47:00;12.90;;;10.53;;
9689;SDS011;4884;42.614;23.340;2023-05-07T04:49:25;12.33;;;10.63;;
9689;SDS011;4884;42.614;23.340;2023-05-07T04:51:51;12.17;;;10.90;;
9689;SDS011;4884;42.614;23.340;2023-05-07T04:54:16;13.57;;;11.17;;
9689;SDS011;4884;42.614;23.340;2023-05-07T04:56:42;10.40;;;9.50;;
9689;SDS011;4884;42.614;23.340;2023-05-07T04:59:07;14.20;;;11.03;;
9689;SDS011;4884;42.614;23.340;2023-05-07T05:01:32;13.70;;;10.53;;
9689;SDS011;4884;42.614;23.340;2023-05-07T05:03:58;12.13;;;10.93;;
9689;SDS011;4884;42.614;23.340;2023-05-07T05:06:25;14.20;;;11.83;;
9689;SDS011;4884;42.614;23.340;2023-05-07T05:08:50;11.60;;;10.50;;
9689;SDS011;4884;42.614;23.340;2023-05-07T05:11:16;12.30;;;10.93;;
9689;SDS011;4884;42.614;23.340;2023-05-07T05:13:41;12.47;;;11.17;;
9689;SDS011;4884;42.614;23.340;2023-05-07T05:16:06;12.50;;;11.20;;
9689;SDS011;4884;42.614;23.340;2023-05-07T05:18:32;12.03;;;9.40;;
9689;SDS011;4884;42.614;23.340;2023-05-07T05:20:57;9.43;;;8.53;;
9689;SDS011;4884;42.614;23.340;2023-05-07T05:23:23;10.43;;;9.30;;
9689;SDS011;4884;42.614;23.340;2023-05-07T05:25:48;15.47;;;10.57;;
9689;SDS011;4884;42.614;23.340;2023-05-07T05:28:13;14.47;;;9.83;;
9689;SDS011;4884;42.614;23.340;2023-05-07T05:30:39;10.40;;;9.30;;
9689;SDS011;4884;42.614;23.340;2023-05-07T05:33:05;12.80;;;9.83;;
9689;SDS011;4884;42.614;23.340;2023-05-07T05:35:31;13.17;;;10.33;;
9689;SDS011;4884;42.614;23.340;2023-05-07T05:37:57;13.07;;;10.83;;
9689;SDS011;4884;42.614;23.340;2023-05-07T05:40:22;13.93;;;10.40;;
9689;SDS011;4884;42.614;23.340;2023-05-07T05:42:47;11.07;;;9.90;;
9689;SDS011;4884;42.614;23.340;2023-05-07T05:45:13;11.43;;;10.30;;
9689;SDS011;4884;42.614;23.340;2023-05-07T05:47:38;13.50;;;10.73;;
9689;SDS011;4884;42.614;23.340;2023-05-07T05:50:05;11.90;;;9.80;;
9689;SDS011;4884;42.614;23.340;2023-05-07T05:52:31;13.97;;;11.17;;
9689;SDS011;4884;42.614;23.340;2023-05-07T05:54:56;12.30;;;10.60;;
9689;SDS011;4884;42.614;23.340;2023-05-07T05:57:22;17.73;;;10.93;;
9689;SDS011;4884;42.614;23.340;2023-05-07T05:59:47;12.47;;;11.17;;
9689;SDS011;4884;42.614;23.340;2023-05-07T06:02:13;12.57;;;11.23;;
9689;SDS011;4884;42.614;23.340;2023-05-07T06:04:38;12.90;;;11.20;;
9689;SDS011;4884;42.614;23.340;2023-05-07T06:07:03;13.33;;;11.00;;
9689;SDS011;4884;42.614;23.340;2023-05-07T06:09:29;13.43;;;10.30;;
9689;SDS011;4884;42.614;23.340;2023-05-07T06:11:54;10.60;;;9.60;;
9689;SDS011;4884;42.614;23.340;2023-05-07T06:14:20;10.00;;;9.07;;
9689;SDS011;4884;42.614;23.340;2023-05-07T06:16:45;10.20;;;9.20;;
9689;SDS011;4884;42.614;23.340;2023-05-07T06:19:10;9.53;;;8.63;;
9689;SDS011;4884;42.614;23.340;2023-05-07T06:21:36;9.10;;;7.93;;
9689;SDS011;4884;42.614;23.340;2023-05-07T06:24:01;9.27;;;8.37;;
9689;SDS011;4884;42.614;23.340;2023-05-07T06:26:27;12.13;;;7.97;;
9689;SDS011;4884;42.614;23.340;2023-05-07T06:28:52;8.77;;;7.65;;
9689;SDS011;4884;42.614;23.340;2023-05-07T06:31:19;9.65;;;8.73;;
9689;SDS011;4884;42.614;23.340;2023-05-07T06:33:47;8.57;;;7.78;;
9689;SDS011;4884;42.614;23.340;2023-05-07T06:36:13;7.45;;;6.63;;
9689;SDS011;4884;42.614;23.340;2023-05-07T06:38:39;12.02;;;8.43;;
9689;SDS011;4884;42.614;23.340;2023-05-07T06:41:05;7.30;;;6.70;;
9689;SDS011;4884;42.614;23.340;2023-05-07T06:43:31;8.13;;;7.38;;
9689;SDS011;4884;42.614;23.340;2023-05-07T06:45:56;7.75;;;7.05;;
9689;SDS011;4884;42.614;23.340;2023-05-07T06:48:22;8.57;;;7.70;;
9689;SDS011;4884;42.614;23.340;2023-05-07T06:50:47;8.32;;;7.53;;
9689;SDS011;4884;42.614;23.340;2023-05-07T06:53:13;7.13;;;6.53;;
9689;SDS011;4884;42.614;23.340;2023-05-07T06:55:38;7.50;;;6.82;;
9689;SDS011;4884;42.614;23.340;2023-05-07T06:58:04;8.68;;;7.63;;
9689;SDS011;4884;42.614;23.340;2023-05-07T07:00:30;7.78;;;6.97;;
9689;SDS011;4884;42.614;23.340;2023-05-07T07:02:56;9.73;;;7.50;;
9689;SDS011;4884;42.614;23.340;2023-05-07T07:05:22;7.03;;;6.43;;
9689;SDS011;4884;42.614;23.340;2023-05-07T07:07:47;7.10;;;6.40;;
9689;SDS011;4884;42.614;23.340;2023-05-07T07:10:21;8.15;;;6.50;;
9689;SDS011;4884;42.614;23.340;2023-05-07T07:12:46;7.30;;;6.33;;
9689;SDS011;4884;42.614;23.340;2023-05-07T07:15:13;9.43;;;5.97;;
9689;SDS011;4884;42.614;23.340;2023-05-07T07:17:38;11.27;;;6.25;;
9689;SDS011;4884;42.614;23.340;2023-05-07T07:20:04;6.00;;;5.40;;
9689;SDS011;4884;42.614;23.340;2023-05-07T07:22:30;6.65;;;6.05;;
9689;SDS011;4884;42.614;23.340;2023-05-07T07:24:59;8.25;;;5.32;;
9689;SDS011;4884;42.614;23.340;2023-05-07T07:27:45;6.43;;;5.82;;
9689;SDS011;4884;42.614;23.340;2023-05-07T07:30:14;6.97;;;5.43;;
9689;SDS011;4884;42.614;23.340;2023-05-07T07:32:40;9.43;;;7.05;;
9689;SDS011;4884;42.614;23.340;2023-05-07T07:35:05;7.80;;;5.80;;
9689;SDS011;4884;42.614;23.340;2023-05-07T07:37:31;6.85;;;5.53;;
9689;SDS011;4884;42.614;23.340;2023-05-07T07:39:57;6.68;;;5.25;;
9689;SDS011;4884;42.614;23.340;2023-05-07T07:42:23;8.02;;;6.85;;
9689;SDS011;4884;42.614;23.340;2023-05-07T07:44:48;6.75;;;6.15;;
9689;SDS011;4884;42.614;23.340;2023-05-07T07:47:14;8.95;;;7.65;;
9689;SDS011;4884;42.614;23.340;2023-05-07T07:49:45;6.43;;;5.93;;
9689;SDS011;4884;42.614;23.340;2023-05-07T07:52:13;6.80;;;6.20;;
9689;SDS011;4884;42.614;23.340;2023-05-07T07:54:38;7.72;;;6.57;;
9689;SDS011;4884;42.614;23.340;2023-05-07T07:57:04;7.10;;;6.07;;
9689;SDS011;4884;42.614;23.340;2023-05-07T07:59:30;6.90;;;6.27;;
9689;SDS011;4884;42.614;23.340;2023-05-07T08:01:55;6.30;;;5.67;;
9689;SDS011;4884;42.614;23.340;2023-05-07T08:04:22;7.07;;;5.83;;
9689;SDS011;4884;42.614;23.340;2023-05-07T08:06:47;7.67;;;6.47;;
9689;SDS011;4884;42.614;23.340;2023-05-07T08:09:13;6.70;;;5.93;;
9689;SDS011;4884;42.614;23.340;2023-05-07T08:11:38;8.53;;;5.70;;
9689;SDS011;4884;42.614;23.340;2023-05-07T08:14:04;5.82;;;5.25;;
9689;SDS011;4884;42.614;23.340;2023-05-07T08:16:29;6.00;;;5.50;;
9689;SDS011;4884;42.614;23.340;2023-05-07T08:18:55;6.20;;;5.55;;
9689;SDS011;4884;42.614;23.340;2023-05-07T08:21:20;7.47;;;6.50;;
9689;SDS011;4884;42.614;23.340;2023-05-07T08:23:49;8.18;;;6.38;;
9689;SDS011;4884;42.614;23.340;2023-05-07T08:26:24;6.83;;;6.20;;
9689;SDS011;4884;42.614;23.340;2023-05-07T08:28:56;7.53;;;6.43;;
9689;SDS011;4884;42.614;23.340;2023-05-07T08:31:27;6.87;;;6.27;;
9689;SDS011;4884;42.614;23.340;2023-05-07T08:33:58;6.73;;;6.13;;
9689;SDS011;4884;42.614;23.340;2023-05-07T08:36:24;7.23;;;5.80;;
9689;SDS011;4884;42.614;23.340;2023-05-07T08:38:56;6.47;;;5.97;;
9689;SDS011;4884;42.614;23.340;2023-05-07T08:41:38;7.53;;;6.27;;
9689;SDS011;4884;42.614;23.340;2023-05-07T08:44:03;8.23;;;7.43;;
9689;SDS011;4884;42.614;23.340;2023-05-07T08:46:31;7.93;;;7.13;;
9689;SDS011;4884;42.614;23.340;2023-05-07T08:48:57;8.60;;;7.03;;
9689;SDS011;4884;42.614;23.340;2023-05-07T08:51:22;7.60;;;6.77;;
9689;SDS011;4884;42.614;23.340;2023-05-07T08:53:50;9.57;;;7.23;;
9689;SDS011;4884;42.614;23.340;2023-05-07T08:56:16;7.33;;;6.63;;
9689;SDS011;4884;42.614;23.340;2023-05-07T08:59:17;8.45;;;7.30;;
9689;SDS011;4884;42.614;23.340;2023-05-07T09:01:53;10.43;;;6.65;;
9689;SDS011;4884;42.614;23.340;2023-05-07T09:04:19;8.80;;;6.15;;
9689;SDS011;4884;42.614;23.340;2023-05-07T09:06:45;6.22;;;4.97;;
9689;SDS011;4884;42.614;23.340;2023-05-07T09:09:14;7.63;;;6.93;;
9689;SDS011;4884;42.614;23.340;2023-05-07T09:11:43;7.23;;;6.37;;
9689;SDS011;4884;42.614;23.340;2023-05-07T09:14:08;7.37;;;6.03;;
9689;SDS011;4884;42.614;23.340;2023-05-07T09:16:33;10.10;;;6.60;;
9689;SDS011;4884;42.614;23.340;2023-05-07T09:18:59;7.63;;;6.87;;
9689;SDS011;4884;42.614;23.340;2023-05-07T09:21:26;7.07;;;6.47;;
9689;SDS011;4884;42.614;23.340;2023-05-07T09:23:52;7.43;;;6.55;;
9689;SDS011;4884;42.614;23.340;2023-05-07T09:26:22;8.70;;;6.70;;
9689;SDS011;4884;42.614;23.340;2023-05-07T09:28:48;7.88;;;6.38;;
9689;SDS011;4884;42.614;23.340;2023-05-07T09:31:13;9.48;;;6.53;;
9689;SDS011;4884;42.614;23.340;2023-05-07T09:33:39;7.15;;;6.40;;
9689;SDS011;4884;42.614;23.340;2023-05-07T09:36:06;7.03;;;6.43;;
9689;SDS011;4884;42.614;23.340;2023-05-07T09:38:32;7.20;;;6.60;;
9689;SDS011;4884;42.614;23.340;2023-05-07T09:41:05;9.90;;;6.43;;
9689;SDS011;4884;42.614;23.340;2023-05-07T09:43:34;6.95;;;5.50;;
9689;SDS011;4884;42.614;23.340;2023-05-07T09:46:06;6.63;;;6.03;;
9689;SDS011;4884;42.614;23.340;2023-05-07T09:48:35;8.45;;;7.47;;
9689;SDS011;4884;42.614;23.340;2023-05-07T09:51:02;9.20;;;6.88;;
9689;SDS011;4884;42.614;23.340;2023-05-07T09:53:41;8.95;;;7.50;;
9689;SDS011;4884;42.614;23.340;2023-05-07T09:56:08;7.63;;;6.82;;
9689;SDS011;4884;42.614;23.340;2023-05-07T09:58:34;9.05;;;7.40;;
9689;SDS011;4884;42.614;23.340;2023-05-07T10:01:02;7.35;;;6.75;;
9689;SDS011;4884;42.614;23.340;2023-05-07T10:03:27;9.93;;;8.35;;
9689;SDS011;4884;42.614;23.340;2023-05-07T10:05:55;7.75;;;7.05;;
9689;SDS011;4884;42.614;23.340;2023-05-07T10:08:20;8.57;;;7.50;;
9689;SDS011;4884;42.614;23.340;2023-05-07T10:10:46;9.85;;;7.53;;
9689;SDS011;4884;42.614;23.340;2023-05-07T10:13:12;7.20;;;6.60;;
9689;SDS011;4884;42.614;23.340;2023-05-07T10:15:37;6.85;;;6.00;;
9689;SDS011;4884;42.614;23.340;2023-05-07T10:18:03;7.10;;;6.50;;
9689;SDS011;4884;42.614;23.340;2023-05-07T10:20:29;12.43;;;7.80;;
9689;SDS011;4884;42.614;23.340;2023-05-07T10:22:55;10.00;;;7.40;;
9689;SDS011;4884;42.614;23.340;2023-05-07T10:25:23;10.00;;;7.32;;
9689;SDS011;4884;42.614;23.340;2023-05-07T10:27:51;6.88;;;6.28;;
9689;SDS011;4884;42.614;23.340;2023-05-07T10:32:47;7.72;;;7.13;;
9689;SDS011;4884;42.614;23.340;2023-05-07T10:35:26;6.82;;;6.25;;
9689;SDS011;4884;42.614;23.340;2023-05-07T10:37:52;7.22;;;6.57;;
9689;SDS011;4884;42.614;23.340;2023-05-07T10:40:18;10.77;;;8.88;;
9689;SDS011;4884;42.614;23.340;2023-05-07T10:45:21;6.32;;;5.82;;
9689;SDS011;4884;42.614;23.340;2023-05-07T10:48:05;8.88;;;6.70;;
9689;SDS011;4884;42.614;23.340;2023-05-07T10:50:38;6.85;;;6.30;;
9689;SDS011;4884;42.614;23.340;2023-05-07T10:58:26;8.13;;;6.90;;
9689;SDS011;4884;42.614;23.340;2023-05-07T11:00:59;6.57;;;5.97;;
9689;SDS011;4884;42.614;23.340;2023-05-07T11:03:26;8.77;;;5.85;;
9689;SDS011;4884;42.614;23.340;2023-05-07T11:08:56;5.82;;;5.43;;
9689;SDS011;4884;42.614;23.340;2023-05-07T11:14:09;6.38;;;5.85;;
9689;SDS011;4884;42.614;23.340;2023-05-07T11:16:36;6.63;;;6.03;;
9689;SDS011;4884;42.614;23.340;2023-05-07T11:19:03;8.55;;;7.53;;
9689;SDS011;4884;42.614;23.340;2023-05-07T11:21:35;6.40;;;5.65;;
9689;SDS011;4884;42.614;23.340;2023-05-07T11:24:02;9.68;;;5.20;;
9689;SDS011;4884;42.614;23.340;2023-05-07T11:26:30;6.28;;;5.78;;
9689;SDS011;4884;42.614;23.340;2023-05-07T11:29:01;5.97;;;5.47;;
9689;SDS011;4884;42.614;23.340;2023-05-07T11:31:27;6.63;;;5.70;;
9689;SDS011;4884;42.614;23.340;2023-05-07T11:33:53;9.57;;;6.57;;
9689;SDS011;4884;42.614;23.340;2023-05-07T11:36:20;8.10;;;6.32;;
9689;SDS011;4884;42.614;23.340;2023-05-07T11:38:47;8.35;;;7.60;;
9689;SDS011;4884;42.614;23.340;2023-05-07T11:41:12;6.50;;;5.90;;
9689;SDS011;4884;42.614;23.340;2023-05-07T11:43:40;6.03;;;5.53;;
9689;SDS011;4884;42.614;23.340;2023-05-07T11:46:19;6.47;;;5.82;;
9689;SDS011;4884;42.614;23.340;2023-05-07T11:48:45;6.45;;;5.80;;
9689;SDS011;4884;42.614;23.340;2023-05-07T11:51:10;8.77;;;6.18;;
9689;SDS011;4884;42.614;23.340;2023-05-07T11:53:39;5.80;;;5.40;;
9689;SDS011;4884;42.614;23.340;2023-05-07T11:56:06;6.30;;;5.70;;
9689;SDS011;4884;42.614;23.340;2023-05-07T11:58:36;7.38;;;5.53;;
9689;SDS011;4884;42.614;23.340;2023-05-07T12:01:02;6.70;;;6.00;;
9689;SDS011;4884;42.614;23.340;2023-05-07T12:03:27;5.82;;;5.18;;
9689;SDS011;4884;42.614;23.340;2023-05-07T12:05:53;6.90;;;5.47;;
9689;SDS011;4884;42.614;23.340;2023-05-07T12:08:18;6.20;;;5.78;;
9689;SDS011;4884;42.614;23.340;2023-05-07T12:10:45;5.93;;;4.93;;
9689;SDS011;4884;42.614;23.340;2023-05-07T12:13:16;5.93;;;5.43;;
9689;SDS011;4884;42.614;23.340;2023-05-07T12:15:46;8.70;;;5.88;;
9689;SDS011;4884;42.614;23.340;2023-05-07T12:18:16;6.00;;;5.50;;
9689;SDS011;4884;42.614;23.340;2023-05-07T12:20:41;5.68;;;5.18;;
9689;SDS011;4884;42.614;23.340;2023-05-07T12:23:09;6.65;;;6.07;;
9689;SDS011;4884;42.614;23.340;2023-05-07T12:25:35;6.43;;;5.60;;
9689;SDS011;4884;42.614;23.340;2023-05-07T12:28:02;5.22;;;4.82;;
9689;SDS011;4884;42.614;23.340;2023-05-07T12:30:40;6.28;;;5.70;;
9689;SDS011;4884;42.614;23.340;2023-05-07T12:33:06;5.60;;;5.20;;
9689;SDS011;4884;42.614;23.340;2023-05-07T12:35:38;5.07;;;4.70;;
9689;SDS011;4884;42.614;23.340;2023-05-07T12:38:08;6.07;;;5.57;;
9689;SDS011;4884;42.614;23.340;2023-05-07T12:40:45;5.75;;;5.35;;
9689;SDS011;4884;42.614;23.340;2023-05-07T12:43:19;6.28;;;5.78;;
9689;SDS011;4884;42.614;23.340;2023-05-07T12:45:46;5.25;;;4.85;;
9689;SDS011;4884;42.614;23.340;2023-05-07T12:48:12;5.57;;;5.28;;
9689;SDS011;4884;42.614;23.340;2023-05-07T12:50:38;5.97;;;5.55;;
9689;SDS011;4884;42.614;23.340;2023-05-07T12:53:04;6.13;;;5.53;;
9689;SDS011;4884;42.614;23.340;2023-05-07T12:55:46;5.50;;;4.97;;
9689;SDS011;4884;42.614;23.340;2023-05-07T13:00:42;8.10;;;5.60;;
9689;SDS011;4884;42.614;23.340;2023-05-07T13:03:08;5.70;;;5.18;;
9689;SDS011;4884;42.614;23.340;2023-05-07T13:05:34;5.93;;;5.35;;
9689;SDS011;4884;42.614;23.340;2023-05-07T13:08:00;5.82;;;5.43;;
9689;SDS011;4884;42.614;23.340;2023-05-07T13:10:25;5.88;;;5.32;;
9689;SDS011;4884;42.614;23.340;2023-05-07T13:12:51;6.00;;;5.50;;
9689;SDS011;4884;42.614;23.340;2023-05-07T13:15:17;6.22;;;5.50;;
9689;SDS011;4884;42.614;23.340;2023-05-07T13:17:43;5.32;;;4.82;;
9689;SDS011;4884;42.614;23.340;2023-05-07T13:20:09;5.50;;;5.00;;
9689;SDS011;4884;42.614;23.340;2023-05-07T13:22:35;8.25;;;5.38;;
9689;SDS011;4884;42.614;23.340;2023-05-07T13:25:00;5.70;;;5.20;;
9689;SDS011;4884;42.614;23.340;2023-05-07T13:27:26;5.65;;;4.68;;
9689;SDS011;4884;42.614;23.340;2023-05-07T13:29:51;6.45;;;5.45;;
9689;SDS011;4884;42.614;23.340;2023-05-07T13:32:16;5.70;;;4.72;;
9689;SDS011;4884;42.614;23.340;2023-05-07T13:34:42;5.97;;;5.38;;
9689;SDS011;4884;42.614;23.340;2023-05-07T13:37:07;5.47;;;5.00;;
9689;SDS011;4884;42.614;23.340;2023-05-07T13:39:33;5.75;;;5.25;;
9689;SDS011;4884;42.614;23.340;2023-05-07T13:41:58;6.07;;;5.55;;
9689;SDS011;4884;42.614;23.340;2023-05-07T13:44:24;6.88;;;6.15;;
9689;SDS011;4884;42.614;23.340;2023-05-07T13:46:50;5.07;;;4.20;;
9689;SDS011;4884;42.614;23.340;2023-05-07T13:49:16;5.65;;;5.05;;
9689;SDS011;4884;42.614;23.340;2023-05-07T13:51:41;4.85;;;4.35;;
9689;SDS011;4884;42.614;23.340;2023-05-07T13:54:07;6.43;;;5.13;;
9689;SDS011;4884;42.614;23.340;2023-05-07T13:56:32;7.18;;;4.88;;
9689;SDS011;4884;42.614;23.340;2023-05-07T13:58:58;6.55;;;4.60;;
9689;SDS011;4884;42.614;23.340;2023-05-07T14:01:23;5.03;;;4.68;;
9689;SDS011;4884;42.614;23.340;2023-05-07T14:03:49;5.38;;;4.82;;
9689;SDS011;4884;42.614;23.340;2023-05-07T14:06:14;8.15;;;5.82;;
9689;SDS011;4884;42.614;23.340;2023-05-07T14:08:40;4.97;;;4.57;;
9689;SDS011;4884;42.614;23.340;2023-05-07T14:11:05;5.78;;;5.18;;
9689;SDS011;4884;42.614;23.340;2023-05-07T14:13:31;5.95;;;5.32;;
9689;SDS011;4884;42.614;23.340;2023-05-07T14:15:56;5.90;;;5.10;;
9689;SDS011;4884;42.614;23.340;2023-05-07T14:18:23;6.47;;;5.50;;
9689;SDS011;4884;42.614;23.340;2023-05-07T14:20:48;5.68;;;5.00;;
9689;SDS011;4884;42.614;23.340;2023-05-07T14:23:14;7.18;;;4.20;;
9689;SDS011;4884;42.614;23.340;2023-05-07T14:25:40;5.25;;;4.85;;
9689;SDS011;4884;42.614;23.340;2023-05-07T14:28:06;5.43;;;4.95;;
9689;SDS011;4884;42.614;23.340;2023-05-07T14:30:31;5.75;;;4.65;;
9689;SDS011;4884;42.614;23.340;2023-05-07T14:32:57;5.60;;;4.55;;
9689;SDS011;4884;42.614;23.340;2023-05-07T14:35:22;7.93;;;5.20;;
9689;SDS011;4884;42.614;23.340;2023-05-07T14:37:47;6.05;;;5.45;;
9689;SDS011;4884;42.614;23.340;2023-05-07T14:40:13;5.65;;;5.15;;
9689;SDS011;4884;42.614;23.340;2023-05-07T14:42:39;5.30;;;4.70;;
9689;SDS011;4884;42.614;23.340;2023-05-07T14:45:05;5.78;;;4.70;;
9689;SDS011;4884;42.614;23.340;2023-05-07T14:47:31;5.07;;;4.68;;
9689;SDS011;4884;42.614;23.340;2023-05-07T14:50:00;5.80;;;5.20;;
9689;SDS011;4884;42.614;23.340;2023-05-07T14:52:31;6.38;;;4.90;;
9689;SDS011;4884;42.614;23.340;2023-05-07T14:54:57;5.53;;;5.00;;
9689;SDS011;4884;42.614;23.340;2023-05-07T14:57:22;6.25;;;4.72;;
9689;SDS011;4884;42.614;23.340;2023-05-07T14:59:48;5.43;;;5.03;;
9689;SDS011;4884;42.614;23.340;2023-05-07T15:02:14;5.20;;;4.80;;
9689;SDS011;4884;42.614;23.340;2023-05-07T15:04:47;6.05;;;5.55;;
9689;SDS011;4884;42.614;23.340;2023-05-07T15:07:13;6.18;;;5.30;;
9689;SDS011;4884;42.614;23.340;2023-05-07T15:09:40;4.60;;;4.20;;
9689;SDS011;4884;42.614;23.340;2023-05-07T15:12:09;4.43;;;4.03;;